createdAt,value
2018-12-29T00:00:32.050Z,48.70
2018-12-29T00:03:25.144Z,49.00
2018-12-29T00:06:18.615Z,49.00
2018-12-29T00:09:11.980Z,48.90
2018-12-29T00:12:05.123Z,49.00
2018-12-29T00:14:58.629Z,48.90
2018-12-29T00:17:51.952Z,48.90
2018-12-29T00:20:45.575Z,48.70
2018-12-29T00:23:38.796Z,48.70
2018-12-29T00:26:32.035Z,48.70
2018-12-29T00:29:25.458Z,48.60
2018-12-29T00:32:18.550Z,48.60
2018-12-29T00:35:11.741Z,48.70
2018-12-29T00:38:05.100Z,48.60
2018-12-29T00:41:00.253Z,48.60
2018-12-29T00:43:52.725Z,48.60
2018-12-29T00:46:46.011Z,48.50
2018-12-29T00:49:39.225Z,48.60
2018-12-29T00:52:32.100Z,48.60
2018-12-29T00:55:25.261Z,48.60
2018-12-29T00:58:21.226Z,48.60
2018-12-29T01:01:14.118Z,48.50
2018-12-29T01:04:07.334Z,48.50
2018-12-29T01:07:00.702Z,48.50
2018-12-29T01:09:54.313Z,48.60
2018-12-29T01:12:50.041Z,48.50
2018-12-29T01:15:43.613Z,48.50
2018-12-29T01:18:36.803Z,48.60
2018-12-29T01:21:29.929Z,48.60
2018-12-29T01:24:23.279Z,48.50
2018-12-29T01:27:16.475Z,48.40
2018-12-29T01:30:10.324Z,48.50
2018-12-29T01:33:03.301Z,48.60
2018-12-29T01:35:56.307Z,48.40
2018-12-29T01:38:49.470Z,48.30
2018-12-29T01:41:42.547Z,48.20
2018-12-29T01:44:35.926Z,48.10
2018-12-29T01:47:29.366Z,48.00
2018-12-29T01:50:22.359Z,48.10
2018-12-29T01:53:15.712Z,48.20
2018-12-29T01:56:11.288Z,48.10
2018-12-29T01:59:04.749Z,47.30
2018-12-29T02:01:57.715Z,47.80
2018-12-29T02:04:50.716Z,47.30
2018-12-29T02:07:43.913Z,43.70
2018-12-29T02:10:36.800Z,43.50
2018-12-29T02:13:30.215Z,43.10
2018-12-29T02:16:23.192Z,43.80
2018-12-29T02:19:16.567Z,44.40
2018-12-29T02:22:09.599Z,44.20
2018-12-29T02:25:03.215Z,44.20
2018-12-29T02:27:56.373Z,44.40
2018-12-29T02:30:49.491Z,44.60
2018-12-29T02:33:42.821Z,44.70
2018-12-29T02:36:36.018Z,44.60
2018-12-29T02:39:32.689Z,44.40
2018-12-29T02:42:27.265Z,44.80
2018-12-29T02:45:22.078Z,44.80
2018-12-29T02:48:17.265Z,44.70
2018-12-29T02:51:14.417Z,44.60
2018-12-29T02:54:06.451Z,44.50
2018-12-29T02:57:08.458Z,44.60
2018-12-29T03:00:01.996Z,44.70
2018-12-29T03:02:55.527Z,44.40
2018-12-29T03:05:58.675Z,44.30
2018-12-29T03:08:52.541Z,43.80
2018-12-29T03:11:45.407Z,43.80
2018-12-29T03:14:38.620Z,43.20
2018-12-29T03:17:31.792Z,43.80
2018-12-29T03:20:34.217Z,43.50
2018-12-29T03:23:27.604Z,44.00
2018-12-29T03:26:20.989Z,43.80
2018-12-29T03:29:18.296Z,44.10
2018-12-29T03:32:29.805Z,44.00
2018-12-29T03:35:25.340Z,44.10
2018-12-29T03:38:29.783Z,44.10
2018-12-29T03:41:32.958Z,43.70
2018-12-29T03:44:27.463Z,43.90
2018-12-29T03:47:21.497Z,43.70
2018-12-29T03:50:14.982Z,43.70
2018-12-29T03:53:09.849Z,43.60
2018-12-29T03:56:02.830Z,43.60
2018-12-29T03:58:56.336Z,43.20
2018-12-29T04:01:50.074Z,43.20
2018-12-29T04:04:47.597Z,43.50
2018-12-29T04:07:40.584Z,43.60
2018-12-29T04:10:34.089Z,43.60
2018-12-29T04:13:27.447Z,43.10
2018-12-29T04:16:21.281Z,41.30
2018-12-29T04:19:14.273Z,43.80
2018-12-29T04:22:07.353Z,48.00
2018-12-29T04:25:00.681Z,47.80
2018-12-29T04:27:54.272Z,46.30
2018-12-29T04:30:47.326Z,45.50
2018-12-29T04:33:44.245Z,44.60
2018-12-29T04:36:37.306Z,44.00
2018-12-29T04:39:30.790Z,43.30
2018-12-29T04:42:24.053Z,42.80
2018-12-29T04:45:18.646Z,42.50
2018-12-29T04:48:22.144Z,42.40
2018-12-29T04:51:16.740Z,42.10
2018-12-29T04:54:10.382Z,42.20
2018-12-29T04:57:03.996Z,42.50
2018-12-29T05:00:00.710Z,42.70
2018-12-29T05:02:54.255Z,42.90
2018-12-29T05:05:47.826Z,43.10
2018-12-29T05:08:51.249Z,43.10
2018-12-29T05:11:45.127Z,43.20
2018-12-29T05:14:38.502Z,43.50
2018-12-29T05:17:39.741Z,43.40
2018-12-29T05:20:50.139Z,43.60
2018-12-29T05:23:44.539Z,41.20
2018-12-29T05:26:37.876Z,40.40
2018-12-29T05:29:36.070Z,40.10
2018-12-29T05:32:38.170Z,40.00
2018-12-29T05:35:29.032Z,40.10
2018-12-29T05:38:23.505Z,39.60
2018-12-29T05:41:27.402Z,39.50
2018-12-29T05:44:22.574Z,39.50
2018-12-29T05:47:18.018Z,39.50
2018-12-29T05:50:15.960Z,38.10
2018-12-29T05:53:12.536Z,37.70
2018-12-29T05:56:15.754Z,38.20
2018-12-29T05:59:14.553Z,37.80
2018-12-29T06:02:11.251Z,37.00
2018-12-29T06:05:07.674Z,37.20
2018-12-29T06:08:05.766Z,36.50
2018-12-29T06:11:02.238Z,37.70
2018-12-29T06:14:00.514Z,36.30
2018-12-29T06:17:03.088Z,36.30
2018-12-29T06:19:56.982Z,36.40
2018-12-29T06:22:53.198Z,36.30
2018-12-29T06:26:06.736Z,36.50
2018-12-29T06:29:04.197Z,36.40
2018-12-29T06:32:00.696Z,35.60
2018-12-29T06:38:05.576Z,35.90
2018-12-29T06:41:01.596Z,35.60
2018-12-29T06:44:00.210Z,36.00
2018-12-29T06:46:56.510Z,36.20
2018-12-29T06:50:00.701Z,35.80
2018-12-29T06:53:03.192Z,35.40
2018-12-29T06:55:57.572Z,35.00
2018-12-29T06:58:59.537Z,35.40
2018-12-29T07:01:54.594Z,35.40
2018-12-29T07:05:03.726Z,35.40
2018-12-29T07:07:57.342Z,35.40
2018-12-29T07:10:52.752Z,34.90
2018-12-29T07:14:08.553Z,34.70
2018-12-29T07:17:03.634Z,35.00
2018-12-29T07:19:57.882Z,35.20
2018-12-29T07:22:51.685Z,35.10
2018-12-29T07:25:46.240Z,35.10
2018-12-29T07:28:40.851Z,34.90
2018-12-29T07:31:37.635Z,34.60
2018-12-29T07:34:31.563Z,34.70
2018-12-29T07:37:26.490Z,35.00
2018-12-29T07:40:24.522Z,34.80
2018-12-29T07:43:26.053Z,34.70
2018-12-29T07:46:23.611Z,34.50
2018-12-29T07:49:16.537Z,34.80
2018-12-29T07:52:10.812Z,35.10
2018-12-29T07:55:04.508Z,34.90
2018-12-29T07:57:59.246Z,34.80
2018-12-29T08:00:54.218Z,34.70
2018-12-29T08:03:47.613Z,35.20
2018-12-29T08:06:42.479Z,35.40
2018-12-29T08:09:36.503Z,35.80
2018-12-29T08:12:41.577Z,36.50
2018-12-29T08:15:42.334Z,36.00
2018-12-29T08:18:53.910Z,35.90
2018-12-29T08:21:50.401Z,36.10
2018-12-29T08:24:44.042Z,36.10
2018-12-29T08:27:38.118Z,36.00
2018-12-29T08:30:32.575Z,36.10
2018-12-29T08:33:29.802Z,36.00
2018-12-29T08:36:24.244Z,35.90
2018-12-29T08:39:19.080Z,35.80
2018-12-29T08:42:12.293Z,35.60
2018-12-29T08:45:06.537Z,36.30
2018-12-29T08:48:01.842Z,35.90
2018-12-29T08:51:05.192Z,36.30
2018-12-29T08:54:03.293Z,36.90
2018-12-29T08:57:09.801Z,37.40
2018-12-29T09:00:19.603Z,37.70
2018-12-29T09:03:36.945Z,38.00
2018-12-29T09:06:38.923Z,38.20
2018-12-29T09:09:46.887Z,38.50
2018-12-29T09:12:50.687Z,38.40
2018-12-29T09:15:52.489Z,39.30
2018-12-29T09:19:02.753Z,39.30
2018-12-29T09:22:01.829Z,39.30
2018-12-29T09:25:07.668Z,39.50
2018-12-29T09:28:12.318Z,39.40
2018-12-29T09:31:13.537Z,39.50
2018-12-29T09:34:06.962Z,39.70
2018-12-29T09:37:01.085Z,39.30
2018-12-29T09:39:54.793Z,39.60
2018-12-29T09:42:53.338Z,40.00
2018-12-29T09:45:48.854Z,40.00
2018-12-29T09:48:42.225Z,40.20
2018-12-29T09:51:39.624Z,40.40
2018-12-29T09:54:39.453Z,40.50
2018-12-29T09:57:36.793Z,40.60
2018-12-29T10:00:30.991Z,40.60
2018-12-29T10:03:24.860Z,41.40
2018-12-29T10:06:21.630Z,41.00
2018-12-29T10:12:46.375Z,41.00
2018-12-29T10:15:39.618Z,41.10
2018-12-29T10:18:33.240Z,41.40
2018-12-29T10:21:29.502Z,41.40
2018-12-29T10:24:23.159Z,41.50
2018-12-29T10:27:16.083Z,41.50
2018-12-29T10:30:10.121Z,41.70
2018-12-29T10:33:05.520Z,41.90
2018-12-29T10:36:00.384Z,42.00
2018-12-29T10:38:55.196Z,42.10
2018-12-29T10:41:48.972Z,42.20
2018-12-29T10:44:45.514Z,42.20
2018-12-29T10:47:39.929Z,42.40
2018-12-29T10:50:33.883Z,42.50
2018-12-29T10:53:28.335Z,42.50
2018-12-29T10:56:25.028Z,42.60
2018-12-29T10:59:22.824Z,42.60
2018-12-29T11:02:25.676Z,42.70
2018-12-29T11:05:24.596Z,42.80
2018-12-29T11:08:20.293Z,42.80
2018-12-29T11:11:15.292Z,42.90
2018-12-29T11:14:09.888Z,42.90
2018-12-29T11:17:05.192Z,43.00
2018-12-29T11:20:03.793Z,43.20
2018-12-29T11:22:59.946Z,43.20
2018-12-29T11:25:54.601Z,43.20
2018-12-29T11:28:49.043Z,43.20
2018-12-29T11:32:03.499Z,43.30
2018-12-29T11:35:00.841Z,43.40
2018-12-29T11:37:57.444Z,43.50
2018-12-29T11:40:54.361Z,43.50
2018-12-29T11:43:48.329Z,43.70
2018-12-29T11:46:46.072Z,43.90
2018-12-29T11:49:41.186Z,43.80
2018-12-29T11:52:34.352Z,43.90
2018-12-29T11:55:27.615Z,44.10
2018-12-29T11:58:24.391Z,44.00
2018-12-29T12:01:18.200Z,44.20
2018-12-29T12:04:11.851Z,44.20
2018-12-29T12:07:08.387Z,44.30
2018-12-29T12:10:07.387Z,44.30
2018-12-29T12:13:05.943Z,44.40
2018-12-29T12:15:58.289Z,44.60
2018-12-29T12:18:56.825Z,44.60
2018-12-29T12:21:51.739Z,44.60
2018-12-29T12:24:48.827Z,44.60
2018-12-29T12:27:42.759Z,44.80
2018-12-29T12:30:37.265Z,44.70
2018-12-29T12:33:40.156Z,44.80
2018-12-29T12:36:36.377Z,45.30
2018-12-29T12:39:33.930Z,44.90
2018-12-29T12:42:27.778Z,44.90
2018-12-29T12:45:21.640Z,45.00
2018-12-29T12:48:18.959Z,45.00
2018-12-29T12:51:12.921Z,45.10
2018-12-29T12:54:05.860Z,45.10
2018-12-29T12:56:59.655Z,45.10
2018-12-29T12:59:54.232Z,45.20
2018-12-29T13:02:49.495Z,45.30
2018-12-29T13:05:44.829Z,45.20
2018-12-29T13:08:39.140Z,45.20
2018-12-29T13:11:33.137Z,45.20
2018-12-29T13:14:27.143Z,45.30
2018-12-29T13:17:21.246Z,45.30
2018-12-29T13:20:16.370Z,45.30
2018-12-29T13:23:10.620Z,45.30
2018-12-29T13:26:04.188Z,45.30
2018-12-29T13:28:57.468Z,45.30
2018-12-29T13:31:51.026Z,45.40
2018-12-29T13:34:44.430Z,45.40
2018-12-29T13:37:38.016Z,45.40
2018-12-29T13:40:31.982Z,45.40
2018-12-29T13:43:26.579Z,45.40
2018-12-29T13:46:19.989Z,45.40
2018-12-29T13:49:14.550Z,45.40
2018-12-29T13:52:08.249Z,45.40
2018-12-29T13:55:01.795Z,45.50
2018-12-29T13:57:55.006Z,45.50
2018-12-29T14:00:50.351Z,45.60
2018-12-29T14:03:46.028Z,45.50
2018-12-29T14:06:37.619Z,45.50
2018-12-29T14:09:31.557Z,45.50
2018-12-29T14:12:24.561Z,45.60
2018-12-29T14:15:34.396Z,45.60
2018-12-29T14:18:28.384Z,45.60
2018-12-29T14:21:27.094Z,45.70
2018-12-29T14:24:20.578Z,45.60
2018-12-29T14:27:15.585Z,45.80
2018-12-29T14:30:09.279Z,45.70
2018-12-29T14:33:02.230Z,45.80
2018-12-29T14:35:58.612Z,45.80
2018-12-29T14:38:51.987Z,45.90
2018-12-29T14:41:45.325Z,45.90
2018-12-29T14:44:44.291Z,45.90
2018-12-29T14:47:38.421Z,45.90
2018-12-29T14:50:32.106Z,46.00
2018-12-29T14:53:25.504Z,46.00
2018-12-29T14:56:19.490Z,46.00
2018-12-29T14:59:14.718Z,46.20
2018-12-29T15:02:07.102Z,46.00
2018-12-29T15:05:02.278Z,46.00
2018-12-29T15:07:54.580Z,46.10
2018-12-29T15:10:47.893Z,46.10
2018-12-29T15:13:41.186Z,46.10
2018-12-29T15:16:34.754Z,46.10
2018-12-29T15:19:30.491Z,46.20
2018-12-29T15:22:24.942Z,46.10
2018-12-29T15:25:21.207Z,46.10
2018-12-29T15:28:14.954Z,46.10
2018-12-29T15:31:09.447Z,46.10
2018-12-29T15:34:02.695Z,46.10
2018-12-29T15:36:57.655Z,46.10
2018-12-29T15:39:51.436Z,46.10
2018-12-29T15:42:45.632Z,46.10
2018-12-29T15:45:38.967Z,46.10
2018-12-29T15:48:32.286Z,46.10
2018-12-29T15:51:26.065Z,46.20
2018-12-29T15:54:22.181Z,46.20
2018-12-29T15:57:16.892Z,46.10
2018-12-29T16:00:11.201Z,46.20
2018-12-29T16:03:04.445Z,46.10
2018-12-29T16:06:03.365Z,46.10
2018-12-29T16:08:56.443Z,46.10
2018-12-29T16:11:50.686Z,46.10
2018-12-29T16:14:46.925Z,46.10
2018-12-29T16:17:43.741Z,46.10
2018-12-29T16:20:37.098Z,46.00
2018-12-29T16:23:30.694Z,46.00
2018-12-29T16:26:25.499Z,46.10
2018-12-29T16:29:18.954Z,46.10
2018-12-29T16:32:12.541Z,46.10
2018-12-29T16:35:06.787Z,46.20
2018-12-29T16:38:00.303Z,46.10
2018-12-29T16:40:57.841Z,46.20
2018-12-29T16:43:50.422Z,46.20
2018-12-29T16:46:42.958Z,46.20
2018-12-29T16:49:36.396Z,46.20
2018-12-29T16:52:29.690Z,46.20
2018-12-29T16:55:23.470Z,46.20
2018-12-29T16:58:17.891Z,46.20
2018-12-29T17:01:11.375Z,46.20
2018-12-29T17:04:04.665Z,46.20
2018-12-29T17:07:01.516Z,46.10
2018-12-29T17:09:54.761Z,46.20
2018-12-29T17:12:48.002Z,46.20
2018-12-29T17:15:41.146Z,46.10
2018-12-29T17:18:34.536Z,46.10
2018-12-29T17:21:28.186Z,46.20
2018-12-29T17:24:21.445Z,46.00
2018-12-29T17:27:14.398Z,46.10
2018-12-29T17:30:07.602Z,46.10
2018-12-29T17:33:01.305Z,46.10
2018-12-29T17:35:55.805Z,46.10
2018-12-29T17:38:51.420Z,46.10
2018-12-29T17:41:44.700Z,46.10
2018-12-29T17:44:37.873Z,46.00
2018-12-29T17:47:35.612Z,46.10
2018-12-29T17:50:28.720Z,46.00
2018-12-29T17:53:22.256Z,45.90
2018-12-29T17:56:15.324Z,45.90
2018-12-29T17:59:08.518Z,45.90
2018-12-29T18:02:02.968Z,45.80
2018-12-29T18:04:56.544Z,45.80
2018-12-29T18:07:51.955Z,45.80
2018-12-29T18:10:44.451Z,45.80
2018-12-29T18:13:38.156Z,45.70
2018-12-29T18:16:31.125Z,45.80
2018-12-29T18:19:30.484Z,45.80
2018-12-29T18:22:19.754Z,45.80
2018-12-29T18:25:13.395Z,45.80
2018-12-29T18:28:07.919Z,45.80
2018-12-29T18:31:04.507Z,45.80
2018-12-29T18:33:58.804Z,45.80
2018-12-29T18:36:51.939Z,45.80
2018-12-29T18:39:48.564Z,45.80
2018-12-29T18:42:41.650Z,45.90
2018-12-29T18:45:35.215Z,45.90
2018-12-29T18:48:28.966Z,46.00
2018-12-29T18:51:21.905Z,45.90
2018-12-29T18:54:15.087Z,46.00
2018-12-29T18:57:08.298Z,46.00
2018-12-29T19:00:01.260Z,46.10
2018-12-29T19:02:54.739Z,46.10
2018-12-29T19:05:50.022Z,46.10
2018-12-29T19:08:43.460Z,46.10
2018-12-29T19:11:37.393Z,46.10
2018-12-29T19:14:30.984Z,46.20
2018-12-29T19:17:24.656Z,46.30
2018-12-29T19:20:18.192Z,46.20
2018-12-29T19:23:14.208Z,46.20
2018-12-29T19:26:07.517Z,46.20
2018-12-29T19:29:00.767Z,46.10
2018-12-29T19:31:58.857Z,46.10
2018-12-29T19:34:52.222Z,46.10
2018-12-29T19:37:46.890Z,46.10
2018-12-29T19:40:40.121Z,46.20
2018-12-29T19:43:33.236Z,46.10
2018-12-29T19:46:26.943Z,46.10
2018-12-29T19:49:20.319Z,46.10
2018-12-29T19:52:13.792Z,46.00
2018-12-29T19:55:06.557Z,46.00
2018-12-29T19:58:00.359Z,46.00
2018-12-29T20:00:54.128Z,46.00
2018-12-29T20:03:51.536Z,46.00
2018-12-29T20:06:46.458Z,46.00
2018-12-29T20:09:39.910Z,46.00
2018-12-29T20:12:33.499Z,46.00
2018-12-29T20:15:26.532Z,46.10
2018-12-29T20:18:19.666Z,46.10
2018-12-29T20:21:17.681Z,46.10
2018-12-29T20:24:11.164Z,46.20
2018-12-29T20:27:04.690Z,46.20
2018-12-29T20:29:58.152Z,46.20
2018-12-29T20:32:58.951Z,46.20
2018-12-29T20:35:45.325Z,46.20
2018-12-29T20:38:38.640Z,46.10
2018-12-29T20:41:32.196Z,46.30
2018-12-29T20:44:25.929Z,46.20
2018-12-29T20:47:18.897Z,46.20
2018-12-29T20:50:13.014Z,46.30
2018-12-29T20:53:06.632Z,46.40
2018-12-29T20:56:00.093Z,46.30
2018-12-29T20:58:55.905Z,46.30
2018-12-29T21:01:49.100Z,46.30
2018-12-29T21:04:46.118Z,46.30
2018-12-29T21:07:39.301Z,46.30
2018-12-29T21:10:35.237Z,46.30
2018-12-29T21:13:28.819Z,46.30
2018-12-29T21:16:22.032Z,46.20
2018-12-29T21:19:15.559Z,46.20
2018-12-29T21:22:08.864Z,46.30
2018-12-29T21:25:02.545Z,46.20
2018-12-29T21:27:55.598Z,46.10
2018-12-29T21:30:49.050Z,46.10
2018-12-29T21:33:42.516Z,46.10
2018-12-29T21:36:35.679Z,46.20
2018-12-29T21:39:29.249Z,46.10
2018-12-29T21:42:22.484Z,46.00
2018-12-29T21:45:20.605Z,46.10
2018-12-29T21:48:13.124Z,46.10
2018-12-29T21:51:06.555Z,46.00
2018-12-29T21:53:59.474Z,46.10
2018-12-29T21:56:53.293Z,46.10
2018-12-29T21:59:46.526Z,46.10
2018-12-29T22:02:39.730Z,46.10
2018-12-29T22:05:32.862Z,46.10
2018-12-29T22:08:26.504Z,46.10
2018-12-29T22:11:20.541Z,46.20
2018-12-29T22:14:14.252Z,46.10
2018-12-29T22:17:10.646Z,46.10
2018-12-29T22:20:08.031Z,46.00
2018-12-29T22:22:58.497Z,46.10
2018-12-29T22:25:51.442Z,46.80
2018-12-29T22:28:44.427Z,46.10
2018-12-29T22:31:37.600Z,46.20
2018-12-29T22:34:30.932Z,46.10
2018-12-29T22:37:24.273Z,46.10
2018-12-29T22:40:17.931Z,46.10
2018-12-29T22:43:11.906Z,46.10
2018-12-29T22:46:05.378Z,46.10
2018-12-29T22:48:59.513Z,46.10
2018-12-29T22:51:53.951Z,46.10
2018-12-29T22:54:52.423Z,46.10
2018-12-29T22:57:47.596Z,46.10
2018-12-29T23:00:44.427Z,46.20
2018-12-29T23:03:37.636Z,46.10
2018-12-29T23:06:30.797Z,46.10
2018-12-29T23:09:24.754Z,46.20
2018-12-29T23:12:19.037Z,46.10
2018-12-29T23:15:12.022Z,46.10
2018-12-29T23:18:14.414Z,46.10
2018-12-29T23:21:07.838Z,46.10
2018-12-29T23:24:01.060Z,46.10
2018-12-29T23:26:54.545Z,46.10
2018-12-29T23:29:48.998Z,46.20
2018-12-29T23:32:42.058Z,46.20
2018-12-29T23:35:35.612Z,46.20
2018-12-29T23:38:29.365Z,46.10
2018-12-29T23:41:22.761Z,46.20
2018-12-29T23:44:16.533Z,46.20
2018-12-29T23:47:10.052Z,46.20
2018-12-29T23:50:03.528Z,46.20
2018-12-29T23:52:56.621Z,46.10
2018-12-29T23:55:49.896Z,46.20
2018-12-29T23:58:43.348Z,46.20
